createdAt,value
2023-04-18T00:01:54.189Z,0.90
2023-04-18T00:06:58.976Z,0.90
2023-04-18T00:11:44.114Z,1.60
2023-04-18T00:16:29.588Z,1.40
2023-04-18T00:21:14.524Z,2.10
2023-04-18T00:25:59.848Z,1.90
2023-04-18T00:30:21.368Z,2.70
2023-04-18T00:35:27.340Z,3.20
2023-04-18T00:40:32.178Z,3.10
2023-04-18T00:44:57.215Z,3.40
2023-04-18T00:49:22.282Z,1.20
2023-04-18T00:54:08.742Z,1.00
2023-04-18T00:58:53.038Z,1.10
2023-04-18T01:03:19.028Z,1.50
2023-04-18T01:08:23.782Z,1.30
2023-04-18T01:13:10.085Z,1.70
2023-04-18T01:17:57.329Z,1.80
2023-04-18T01:22:42.417Z,1.90
2023-04-18T01:27:06.599Z,2.40
2023-04-18T01:31:30.959Z,2.60
2023-04-18T01:35:54.953Z,3.40
2023-04-18T01:40:18.854Z,2.80
2023-04-18T01:45:03.033Z,2.90
2023-04-18T01:49:48.972Z,2.00
2023-04-18T01:54:14.444Z,1.90
2023-04-18T01:58:58.584Z,2.30
2023-04-18T02:03:45.145Z,1.30
2023-04-18T02:08:12.332Z,2.20
2023-04-18T02:12:37.605Z,3.30
2023-04-18T02:17:01.704Z,2.90
2023-04-18T02:21:45.602Z,2.10
2023-04-18T02:26:35.875Z,3.10
2023-04-18T02:31:21.344Z,1.70
2023-04-18T02:36:08.439Z,2.40
2023-04-18T02:40:34.881Z,2.00
2023-04-18T02:44:59.897Z,1.90
2023-04-18T02:49:44.464Z,1.50
2023-04-18T02:54:21.194Z,1.80
2023-04-18T02:58:50.244Z,2.90
2023-04-18T03:03:21.870Z,1.80
2023-04-18T03:08:17.741Z,2.40
2023-04-18T03:12:58.213Z,2.60
2023-04-18T03:17:21.091Z,1.80
2023-04-18T03:22:07.201Z,1.90
2023-04-18T03:26:52.170Z,2.20
2023-04-18T03:31:17.784Z,1.70
2023-04-18T03:35:43.972Z,1.70
2023-04-18T03:40:27.892Z,1.90
2023-04-18T03:44:53.390Z,1.60
2023-04-18T03:49:17.364Z,1.60
2023-04-18T03:53:42.550Z,1.80
2023-04-18T03:58:26.919Z,1.50
2023-04-18T04:02:52.403Z,1.70
2023-04-18T04:07:17.263Z,1.90
2023-04-18T04:11:41.215Z,2.00
2023-04-18T04:16:07.388Z,1.40
2023-04-18T04:20:37.567Z,1.40
2023-04-18T04:25:21.551Z,1.90
2023-04-18T04:29:49.408Z,2.00
2023-04-18T04:34:54.248Z,1.80
2023-04-18T04:39:28.157Z,2.00
2023-04-18T04:44:28.583Z,2.30
2023-04-18T04:49:33.563Z,2.40
2023-04-18T04:54:17.506Z,3.60
2023-04-18T04:59:01.626Z,2.30
2023-04-18T05:03:47.186Z,2.70
2023-04-18T05:08:38.527Z,2.70
2023-04-18T05:13:05.453Z,3.20
2023-04-18T05:17:50.754Z,3.70
2023-04-18T05:22:15.249Z,4.70
2023-04-18T05:26:47.893Z,4.20
2023-04-18T05:31:53.032Z,3.70
2023-04-18T05:36:19.400Z,2.80
2023-04-18T05:40:45.531Z,2.80
2023-04-18T05:45:30.592Z,3.60
2023-04-18T05:50:13.466Z,5.10
2023-04-18T05:55:04.318Z,3.80
2023-04-18T05:59:49.162Z,6.30
2023-04-18T06:04:16.446Z,10.70
2023-04-18T06:09:00.894Z,9.30
2023-04-18T06:13:27.696Z,8.00
2023-04-18T06:18:19.408Z,11.30
2023-04-18T06:23:04.885Z,5.10
2023-04-18T06:27:31.369Z,5.50
2023-04-18T06:32:04.814Z,5.80
2023-04-18T06:36:30.029Z,4.30
2023-04-18T06:40:54.458Z,4.20
2023-04-18T06:45:20.399Z,2.00
2023-04-18T06:50:11.292Z,5.30
2023-04-18T06:54:55.558Z,1.60
2023-04-18T06:59:21.725Z,1.20
2023-04-18T07:03:49.788Z,1.10
2023-04-18T07:08:15.041Z,1.50
2023-04-18T07:12:40.129Z,1.80
2023-04-18T07:17:10.249Z,1.70
2023-04-18T07:22:14.087Z,1.50
2023-04-18T07:26:39.634Z,1.40
2023-04-18T07:31:04.750Z,1.60
2023-04-18T07:35:28.850Z,1.70
2023-04-18T07:39:53.812Z,1.20
2023-04-18T07:44:10.959Z,1.00
2023-04-18T07:48:34.833Z,3.70
2023-04-18T07:52:59.054Z,1.50
2023-04-18T07:57:26.128Z,2.70
2023-04-18T08:02:11.356Z,4.80
2023-04-18T08:07:15.264Z,1.30
2023-04-18T08:11:48.710Z,1.10
2023-04-18T08:16:17.776Z,1.60
2023-04-18T08:20:43.426Z,0.60
2023-04-18T08:25:10.582Z,0.80
2023-04-18T08:29:35.091Z,1.20
2023-04-18T08:34:02.602Z,1.20
2023-04-18T08:38:28.407Z,0.80
2023-04-18T08:42:53.329Z,0.70
2023-04-18T08:47:17.260Z,0.80
2023-04-18T08:51:41.106Z,0.90
2023-04-18T08:56:10.891Z,1.10
2023-04-18T09:00:39.345Z,1.00
2023-04-18T09:05:14.265Z,1.20
2023-04-18T09:09:38.248Z,0.90
2023-04-18T09:14:20.407Z,0.90
2023-04-18T09:18:51.647Z,1.20
2023-04-18T09:23:27.629Z,1.00
2023-04-18T09:28:19.843Z,1.00
2023-04-18T09:33:05.359Z,0.90
2023-04-18T09:37:51.910Z,1.30
2023-04-18T09:42:23.234Z,1.30
2023-04-18T09:46:49.285Z,1.00
2023-04-18T09:51:17.308Z,1.30
2023-04-18T09:55:41.657Z,1.10
2023-04-18T10:00:35.545Z,1.50
2023-04-18T10:05:03.158Z,1.10
2023-04-18T10:09:28.115Z,2.30
2023-04-18T10:13:53.374Z,1.40
2023-04-18T10:18:22.707Z,1.10
2023-04-18T10:22:51.038Z,1.40
2023-04-18T10:27:08.250Z,2.00
2023-04-18T10:31:42.063Z,1.40
2023-04-18T10:36:06.992Z,1.30
2023-04-18T10:44:46.893Z,1.50
2023-04-18T10:49:27.807Z,1.40
2023-04-18T10:53:52.549Z,1.40
2023-04-18T10:58:25.659Z,1.50
2023-04-18T11:03:26.007Z,1.20
2023-04-18T11:07:50.868Z,1.90
2023-04-18T11:12:17.264Z,6.10
2023-04-18T11:16:41.633Z,1.80
2023-04-18T11:21:18.770Z,1.60
2023-04-18T11:25:52.868Z,2.00
2023-04-18T11:30:40.881Z,2.00
2023-04-18T11:35:05.489Z,2.00
2023-04-18T11:39:51.345Z,1.90
2023-04-18T11:44:37.482Z,2.00
2023-04-18T11:49:02.747Z,1.70
2023-04-18T11:53:27.767Z,1.50
2023-04-18T11:58:03.118Z,2.00
2023-04-18T12:02:43.443Z,1.50
2023-04-18T12:07:46.015Z,1.40
2023-04-18T12:12:11.000Z,1.70
2023-04-18T12:16:28.044Z,2.10
2023-04-18T12:21:43.308Z,1.70
2023-04-18T12:25:43.363Z,2.40
2023-04-18T12:30:11.556Z,1.70
2023-04-18T12:34:36.636Z,1.70
2023-04-18T12:39:05.813Z,1.40
2023-04-18T12:43:33.815Z,1.90
2023-04-18T12:48:02.354Z,1.80
2023-04-18T12:52:36.769Z,2.00
2023-04-18T12:57:23.910Z,1.90
2023-04-18T13:02:08.037Z,2.10
2023-04-18T13:06:34.071Z,2.10
2023-04-18T13:10:58.758Z,1.50
2023-04-18T13:15:25.885Z,1.70
2023-04-18T13:19:51.365Z,1.90
2023-04-18T13:24:16.346Z,2.50
2023-04-18T13:28:41.115Z,1.80
2023-04-18T13:33:05.157Z,1.80
2023-04-18T13:37:30.160Z,2.10
2023-04-18T13:42:01.943Z,3.30
2023-04-18T13:46:26.816Z,1.50
2023-04-18T13:50:51.244Z,4.40
2023-04-18T13:55:32.241Z,1.60
2023-04-18T13:59:56.548Z,2.20
2023-04-18T14:04:22.317Z,1.60
2023-04-18T14:08:48.083Z,2.80
2023-04-18T14:13:13.316Z,2.00
2023-04-18T14:18:21.328Z,3.00
2023-04-18T14:23:06.509Z,2.20
2023-04-18T14:27:50.331Z,1.60
2023-04-18T14:32:14.151Z,1.80
2023-04-18T14:36:43.761Z,2.30
2023-04-18T14:41:28.080Z,2.50
2023-04-18T14:45:54.259Z,2.60
2023-04-18T14:50:18.678Z,2.10
2023-04-18T14:54:43.605Z,2.80
2023-04-18T14:59:15.619Z,1.80
2023-04-18T15:04:00.655Z,1.80
2023-04-18T15:08:52.940Z,9.90
2023-04-18T15:13:41.064Z,2.80
2023-04-18T15:18:07.062Z,2.30
2023-04-18T15:22:30.755Z,1.50
2023-04-18T15:26:57.997Z,1.60
2023-04-18T15:31:27.972Z,1.60
2023-04-18T15:36:17.489Z,1.70
2023-04-18T15:41:03.613Z,1.80
2023-04-18T15:46:01.391Z,1.70
2023-04-18T15:50:27.724Z,1.80
2023-04-18T15:55:05.582Z,3.10
2023-04-18T15:59:31.578Z,2.00
2023-04-18T16:04:03.677Z,1.70
2023-04-18T16:08:37.520Z,1.40
2023-04-18T16:13:05.028Z,2.00
2023-04-18T16:17:33.234Z,3.10
2023-04-18T16:22:01.980Z,2.70
2023-04-18T16:26:31.661Z,8.40
2023-04-18T16:30:57.485Z,3.30
2023-04-18T16:35:42.500Z,3.50
2023-04-18T16:40:10.131Z,4.20
2023-04-18T16:44:40.013Z,5.60
2023-04-18T16:49:32.439Z,3.90
2023-04-18T16:54:37.264Z,2.70
2023-04-18T16:59:07.160Z,2.80
2023-04-18T17:03:52.627Z,2.60
2023-04-18T17:08:24.307Z,3.10
2023-04-18T17:12:52.308Z,3.70
2023-04-18T17:17:19.264Z,3.30
2023-04-18T17:21:43.159Z,3.00
2023-04-18T17:26:13.676Z,3.10
2023-04-18T17:31:01.629Z,2.30
2023-04-18T17:35:47.733Z,1.90
2023-04-18T17:40:51.653Z,1.40
2023-04-18T17:45:38.021Z,1.50
2023-04-18T17:50:12.035Z,2.00
2023-04-18T17:54:39.468Z,2.40
2023-04-18T17:59:25.411Z,2.00
2023-04-18T18:04:24.229Z,2.60
2023-04-18T18:08:52.790Z,2.10
2023-04-18T18:13:31.772Z,1.90
2023-04-18T18:17:55.886Z,1.90
2023-04-18T18:22:19.908Z,1.60
2023-04-18T18:26:44.297Z,3.00
2023-04-18T18:31:10.915Z,3.10
2023-04-18T18:35:36.158Z,4.00
2023-04-18T18:40:22.118Z,2.60
2023-04-18T18:45:08.619Z,2.80
2023-04-18T18:50:17.168Z,2.30
2023-04-18T18:55:07.199Z,2.50
2023-04-18T18:59:54.528Z,2.40
2023-04-18T19:04:38.020Z,2.20
2023-04-18T19:09:08.332Z,2.80
2023-04-18T19:13:32.256Z,2.10
2023-04-18T19:17:57.965Z,2.00
2023-04-18T19:22:21.789Z,2.20
2023-04-18T19:26:56.868Z,2.30
2023-04-18T19:32:05.057Z,2.80
2023-04-18T19:37:00.662Z,2.80
2023-04-18T19:42:05.475Z,2.20
2023-04-18T19:46:52.288Z,2.20
2023-04-18T19:51:56.341Z,2.10
2023-04-18T19:56:21.708Z,1.50
2023-04-18T20:00:49.720Z,1.80
2023-04-18T20:05:16.111Z,1.60
2023-04-18T20:10:07.430Z,1.90
2023-04-18T20:14:40.006Z,2.10
2023-04-18T20:19:26.403Z,1.30
2023-04-18T20:24:39.411Z,1.70
2023-04-18T20:29:40.924Z,1.60
2023-04-18T20:34:48.018Z,1.90
2023-04-18T20:39:30.824Z,2.00
2023-04-18T20:44:40.378Z,2.00
2023-04-18T20:49:05.414Z,1.80
2023-04-18T20:53:31.337Z,2.00
2023-04-18T20:57:56.279Z,1.80
2023-04-18T21:02:21.487Z,1.70
2023-04-18T21:06:47.593Z,1.80
2023-04-18T21:11:17.299Z,1.80
2023-04-18T21:15:42.960Z,2.00
2023-04-18T21:20:07.888Z,1.90
2023-04-18T21:24:33.437Z,1.70
2023-04-18T21:28:59.355Z,1.80
2023-04-18T21:33:45.847Z,1.90
2023-04-18T21:38:39.504Z,1.80
2023-04-18T21:43:04.864Z,1.80
2023-04-18T21:47:51.344Z,1.80
2023-04-18T21:52:23.849Z,1.80
2023-04-18T21:57:05.030Z,1.80
2023-04-18T22:01:34.779Z,4.30
2023-04-18T22:06:48.114Z,3.60
2023-04-18T22:11:17.209Z,1.90
2023-04-18T22:15:47.273Z,2.30
2023-04-18T22:20:52.119Z,2.20
2023-04-18T22:25:37.108Z,2.60
2023-04-18T22:30:15.108Z,2.20
2023-04-18T22:34:42.492Z,2.10
2023-04-18T22:43:31.827Z,2.60
2023-04-18T22:48:03.390Z,2.40
2023-04-18T22:52:29.736Z,2.00
2023-04-18T22:57:00.560Z,2.10
2023-04-18T23:01:33.299Z,2.20
2023-04-18T23:06:02.939Z,2.60
2023-04-18T23:10:32.623Z,2.30
2023-04-18T23:14:56.598Z,2.30
2023-04-18T23:19:40.574Z,2.60
2023-04-18T23:24:05.571Z,2.50
2023-04-18T23:28:30.753Z,2.50
2023-04-18T23:32:55.819Z,2.00
2023-04-18T23:37:20.785Z,3.00
2023-04-18T23:41:48.773Z,2.00
2023-04-18T23:46:13.297Z,2.30
2023-04-18T23:50:37.581Z,2.60
2023-04-18T23:55:03.523Z,2.20
2023-04-18T23:59:31.445Z,2.40
